Time;durP1;ratioP1;P1;durP2;ratioP2;P2;SDS_P1;SDS_P2;PMS_P1;PMS_P2;Temp;Humidity;BMP_temperature;BMP_pressure;BME280_temperature;BME280_humidity;BME280_pressure;Samples;Min_cycle;Max_cycle;Signal;HPM_P1;HPM_P2
2022/06/23 00:04:14;;;;;;;1.27;0.60;;;22.10;67.80;;;20.85;55.95;99644.84;9844081;29;96743;-87
2022/06/23 00:09:29;;;;;;;1.23;0.63;;;21.90;66.20;;;20.71;55.31;99652.47;9807942;29;96580;-85
2022/06/23 00:14:32;;;;;;;2.22;0.70;;;21.80;66.30;;;20.62;56.47;99662.03;9852659;29;96570;-85
2022/06/23 00:19:34;;;;;;;0.80;0.50;;;21.70;68.20;;;20.55;57.00;99680.28;9828512;29;96689;-85
2022/06/23 00:24:39;;;;;;;0.93;0.50;;;21.60;70.70;;;20.40;59.29;99688.94;9847215;29;96727;-85
2022/06/23 00:29:45;;;;;;;0.70;0.55;;;21.40;73.30;;;20.27;59.24;99681.13;9832480;29;96648;-85
2022/06/23 00:34:59;;;;;;;1.52;0.93;;;21.20;71.60;;;20.12;60.80;99686.28;9847165;29;96618;-85
2022/06/23 00:40:12;;;;;;;0.70;0.65;;;21.10;73.20;;;20.00;61.38;99700.63;9835620;29;97167;-84
2022/06/23 00:45:49;;;;;;;2.85;0.70;;;21.00;72.80;;;19.90;60.87;99695.03;9842480;29;97352;-87
2022/06/23 00:51:17;;;;;;;2.78;0.80;;;20.90;74.10;;;19.84;61.65;99700.59;9825449;29;97219;-86
2022/06/23 00:56:54;;;;;;;3.20;0.70;;;20.80;75.00;;;19.76;61.64;99699.09;9859199;29;96614;-86
2022/06/23 01:02:09;;;;;;;1.27;0.70;;;20.80;74.20;;;19.69;63.20;99687.66;9832724;29;96637;-86
2022/06/23 01:07:38;;;;;;;1.20;0.77;;;20.70;75.40;;;19.52;64.79;99695.63;9857324;29;96495;-86
2022/06/23 01:12:45;;;;;;;1.83;0.90;;;20.60;77.50;;;19.32;65.72;99704.13;9841515;29;97823;-85
2022/06/23 01:18:18;;;;;;;2.20;0.52;;;20.40;77.40;;;19.15;66.35;99695.13;9836308;29;98394;-85
2022/06/23 01:23:46;;;;;;;1.00;0.70;;;20.30;77.60;;;18.98;66.56;99706.59;9862522;29;97374;-84
2022/06/23 01:28:56;;;;;;;0.50;0.50;;;20.10;78.20;;;18.86;66.81;99711.16;9857438;29;98470;-84
2022/06/23 01:34:12;;;;;;;1.13;0.90;;;20.00;78.50;;;18.78;67.18;99698.06;9861754;29;96547;-84
2022/06/23 01:39:26;;;;;;;1.10;0.73;;;19.90;78.80;;;18.68;67.57;99704.00;9848825;29;96543;-84
2022/06/23 01:45:04;;;;;;;5.07;1.00;;;19.80;79.30;;;18.58;68.17;99684.88;9826118;29;96682;-84
2022/06/23 01:50:13;;;;;;;1.50;0.73;;;19.70;83.70;;;18.48;68.34;99691.91;9806953;29;96617;-84
2022/06/23 01:55:27;;;;;;;1.55;0.80;;;19.60;84.90;;;18.33;68.75;99687.78;9826947;29;96622;-84
2022/06/23 02:00:30;;;;;;;1.65;0.73;;;19.40;82.50;;;18.25;68.19;99696.19;9817065;29;96561;-84
2022/06/23 02:05:57;;;;;;;0.68;0.47;;;19.30;83.80;;;18.13;67.65;99717.66;9844893;29;96710;-84
2022/06/23 02:11:41;;;;;;;1.10;0.75;;;19.20;81.90;;;18.10;67.58;99717.28;9847927;29;96847;-84
2022/06/23 02:17:10;;;;;;;0.88;0.60;;;19.10;82.60;;;18.01;67.27;99695.31;9845465;29;96619;-84
2022/06/23 02:22:22;;;;;;;1.45;0.57;;;19.10;82.30;;;17.95;66.73;99698.09;9860904;29;98477;-84
2022/06/23 02:27:50;;;;;;;0.82;0.47;;;19.00;82.40;;;17.82;67.26;99702.59;9860853;29;96950;-85
2022/06/23 02:33:25;;;;;;;0.40;0.40;;;18.90;82.20;;;17.77;67.09;99715.88;9835839;29;97474;-85
2022/06/23 02:38:42;;;;;;;2.25;0.88;;;18.90;81.60;;;17.79;66.41;99723.72;9862188;29;96923;-85
2022/06/23 02:43:52;;;;;;;1.58;0.55;;;18.80;81.30;;;17.79;64.92;99735.28;9864093;29;96666;-86
2022/06/23 02:49:22;;;;;;;1.23;0.52;;;18.90;80.20;;;17.79;65.83;99737.97;9842206;29;96834;-86
2022/06/23 02:55:15;;;;;;;0.85;0.65;;;18.80;81.50;;;17.75;65.84;99744.88;9864866;29;97452;-85
2022/06/23 03:00:31;;;;;;;0.32;0.30;;;18.80;81.90;;;17.67;66.82;99755.88;9859299;29;96662;-85
2022/06/23 03:06:02;;;;;;;0.90;0.60;;;18.70;82.20;;;17.62;65.31;99758.41;9854805;29;96725;-84
2022/06/23 03:11:54;;;;;;;0.93;0.70;;;18.70;81.00;;;17.65;64.47;99768.72;9833753;29;96760;-84
2022/06/23 03:17:14;;;;;;;1.13;0.70;;;18.70;80.60;;;17.71;64.09;99762.44;9822849;29;96666;-84
2022/06/23 03:22:31;;;;;;;1.60;0.80;;;18.70;80.20;;;17.77;63.72;99758.88;9843731;29;97735;-84
2022/06/23 03:27:57;;;;;;;0.60;0.50;;;18.80;80.10;;;17.78;64.32;99771.28;9846013;29;97631;-84
2022/06/23 03:33:39;;;;;;;0.70;0.50;;;18.80;81.00;;;17.79;66.05;99772.91;9834028;29;96748;-83
2022/06/23 03:44:39;;;;;;;0.75;0.45;;;18.80;84.90;;;17.78;66.51;99781.19;9832707;29;96639;-87
2022/06/23 03:50:17;;;;;;;1.15;0.70;;;18.80;82.30;;;17.83;67.15;99787.53;9843391;29;97481;-88
2022/06/23 03:55:27;;;;;;;0.63;0.50;;;18.90;83.70;;;17.88;66.91;99784.19;9793878;29;96525;-87
2022/06/23 04:01:12;;;;;;;;;;;18.90;83.70;;;17.96;65.54;99793.81;9816235;29;96671;-87
2022/06/23 04:06:22;;;;;;;0.88;0.40;;;18.90;82.60;;;17.99;64.44;99787.97;9829624;29;96741;-87
2022/06/23 04:11:45;;;;;;;1.73;0.47;;;19.00;81.30;;;18.03;65.40;99797.22;9844079;29;96642;-92
2022/06/23 04:17:13;;;;;;;2.15;0.60;;;19.00;82.20;;;18.09;65.24;99807.06;9814422;29;96662;-87
2022/06/23 04:22:37;;;;;;;0.90;0.60;;;19.10;82.00;;;18.17;66.81;99820.19;9849660;29;97359;-88
2022/06/23 04:27:55;;;;;;;0.80;0.60;;;19.10;84.60;;;18.22;67.86;99828.41;9836266;29;98131;-88
2022/06/23 04:33:04;;;;;;;1.55;0.57;;;19.20;85.60;;;18.29;66.99;99828.31;9838506;29;97733;-88
2022/06/23 04:38:41;;;;;;;0.90;0.40;;;19.20;84.40;;;18.43;67.96;99841.38;9823469;29;96670;-87
2022/06/23 04:43:55;;;;;;;0.77;0.50;;;19.40;86.20;;;18.61;66.93;99839.69;9836089;29;96915;-87
2022/06/23 04:49:09;;;;;;;1.58;0.93;;;19.50;85.30;;;18.77;66.87;99841.75;9834720;29;96690;-87
2022/06/23 04:54:22;;;;;;;0.90;0.60;;;19.60;85.20;;;18.93;66.43;99841.09;9838515;29;96854;-88
2022/06/23 04:59:34;;;;;;;1.33;0.50;;;19.80;84.60;;;19.15;67.19;99854.84;9816924;29;99003;-88
2022/06/23 05:04:41;;;;;;;1.50;0.60;;;20.00;86.30;;;19.36;66.96;99858.81;9835783;29;98334;-89
2022/06/23 05:09:44;;;;;;;0.90;0.60;;;20.20;85.40;;;19.57;66.23;99860.13;9829117;29;97461;-88
2022/06/23 05:15:16;;;;;;;0.40;0.35;;;20.40;85.90;;;19.80;62.29;99862.03;9848397;29;96731;-94
2022/06/23 05:20:50;;;;;;;0.50;0.32;;;20.60;80.90;;;20.00;59.50;99851.66;9843072;29;97327;-92
2022/06/23 05:26:02;;;;;;;0.52;0.35;;;20.80;78.60;;;20.17;54.16;99862.53;9817832;29;96691;-91
2022/06/23 05:31:15;;;;;;;0.40;0.30;;;21.00;70.90;;;20.32;52.09;99870.09;9834896;29;96984;-91
2022/06/23 05:36:27;;;;;;;1.17;0.40;;;21.20;69.50;;;20.48;50.44;99880.19;9823331;29;98641;-90
2022/06/23 05:41:41;;;;;;;0.65;0.30;;;21.30;69.80;;;20.67;48.00;99880.81;9833287;29;96722;-89
2022/06/23 05:46:45;;;;;;;0.68;0.43;;;21.50;60.40;;;20.90;48.53;99884.47;9822518;29;96784;-89
2022/06/23 05:52:06;;;;;;;0.93;0.30;;;21.80;66.20;;;21.15;45.00;99881.38;9816052;29;96516;-91
2022/06/23 05:57:30;;;;;;;0.95;0.43;;;22.00;65.00;;;21.42;44.59;99879.69;9798231;29;97026;-90
2022/06/23 06:02:48;;;;;;;0.80;0.30;;;22.30;63.80;;;21.69;45.78;99897.94;9835068;29;97318;-92
2022/06/23 06:07:51;;;;;;;0.50;0.40;;;22.60;64.10;;;21.95;45.32;99891.81;9862174;29;98858;-88
2022/06/23 06:12:56;;;;;;;0.43;0.28;;;22.80;63.30;;;22.14;43.47;99905.91;9857474;29;96898;-89
2022/06/23 06:18:16;;;;;;;0.50;0.30;;;23.00;62.50;;;22.31;43.76;99909.38;9841313;29;97259;-88
2022/06/23 06:23:33;;;;;;;0.33;0.20;;;23.20;62.00;;;22.47;44.07;99912.25;9847441;29;96804;-90
2022/06/23 06:28:36;;;;;;;0.57;0.45;;;23.40;61.80;;;22.62;46.18;99917.84;9848243;29;97231;-88
2022/06/23 06:34:36;;;;;;;1.52;0.52;;;23.50;62.90;;;22.66;45.11;99916.25;9845582;29;96621;-90
2022/06/23 06:39:45;;;;;;;0.90;0.50;;;23.60;61.80;;;22.70;44.90;99923.63;9847510;29;96672;-89
2022/06/23 06:44:51;;;;;;;1.42;0.50;;;23.70;62.10;;;22.83;44.53;99927.00;9812958;29;96812;-89
2022/06/23 06:50:00;;;;;;;1.35;0.57;;;23.80;61.70;;;22.93;41.68;99927.16;9848831;29;97677;-87
2022/06/23 06:55:13;;;;;;;0.22;0.20;;;23.90;59.90;;;23.06;42.03;99926.72;9863143;29;96516;-88
2022/06/23 07:00:32;;;;;;;0.30;0.30;;;24.00;59.30;;;23.17;40.51;99930.38;9846241;29;96542;-89
2022/06/23 07:06:09;;;;;;;0.27;0.20;;;24.10;58.30;;;23.36;39.33;99922.66;9809278;29;96793;-89
2022/06/23 07:11:29;;;;;;;0.77;0.32;;;24.30;57.30;;;23.56;37.89;99922.81;9837374;29;96486;-89
2022/06/23 07:16:47;;;;;;;0.47;0.32;;;24.50;55.60;;;23.72;37.45;99930.00;9855662;29;96545;-87
2022/06/23 07:22:15;;;;;;;0.73;0.22;;;24.60;55.40;;;23.87;34.91;99934.75;9809574;29;96845;-88
2022/06/23 07:28:00;;;;;;;0.65;0.40;;;24.80;53.00;;;23.99;34.90;99926.38;9808932;29;96689;-88
2022/06/23 07:33:19;;;;;;;3.13;0.35;;;24.90;52.20;;;24.00;34.63;99934.28;9841773;29;96646;-88
2022/06/23 07:38:45;;;;;;;1.10;0.50;;;25.00;51.90;;;24.08;34.89;99948.41;9828962;29;96672;-87
2022/06/23 07:44:28;;;;;;;0.68;0.40;;;25.00;51.40;;;24.20;35.44;99947.13;9845430;29;96680;-88
2022/06/23 07:49:33;;;;;;;0.93;0.50;;;25.10;51.70;;;24.29;35.88;99951.00;9821750;29;96642;-89
2022/06/23 07:54:36;;;;;;;0.73;0.40;;;25.30;51.80;;;24.31;35.41;99950.72;9844374;29;96792;-88
2022/06/23 07:59:48;;;;;;;0.40;0.30;;;25.30;51.70;;;24.48;35.40;99954.09;9818897;29;97820;-89
2022/06/23 08:05:15;;;;;;;0.30;0.30;;;25.40;52.00;;;24.63;34.67;99947.88;9808223;29;96496;-89
2022/06/23 08:10:27;;;;;;;0.90;0.40;;;25.50;51.00;;;24.75;34.64;99950.38;9839979;29;96542;-85
2022/06/23 08:21:25;;;;;;;0.43;0.30;;;25.70;50.60;;;24.93;34.20;99949.06;9847945;29;96394;-88
2022/06/23 08:26:30;;;;;;;0.30;0.30;;;25.80;50.60;;;25.01;33.91;99943.94;9834603;29;96587;-87
2022/06/23 08:31:33;;;;;;;1.77;0.32;;;25.90;50.30;;;25.09;33.70;99942.59;9815964;29;96671;-87
2022/06/23 08:37:05;;;;;;;0.30;0.30;;;26.00;50.10;;;25.20;33.57;99940.72;9842598;29;97297;-87
2022/06/23 08:42:24;;;;;;;1.27;0.45;;;26.10;49.60;;;25.36;34.13;99937.72;9842773;29;97466;-87
2022/06/23 08:48:07;;;;;;;0.50;0.30;;;26.30;49.70;;;25.53;32.51;99942.06;9848544;29;96789;-87
2022/06/23 08:53:50;;;;;;;0.65;0.32;;;26.40;49.00;;;25.67;32.31;99937.72;9849943;29;96644;-85
2022/06/23 08:59:14;;;;;;;0.52;0.38;;;26.60;48.70;;;25.85;32.85;99933.66;9808122;29;96652;-87
2022/06/23 09:04:36;;;;;;;0.22;0.20;;;26.70;49.00;;;25.96;32.02;99928.97;9812741;29;97335;-87
2022/06/23 09:09:43;;;;;;;1.27;0.55;;;26.90;48.60;;;26.13;31.59;99926.75;9829621;29;96896;-87
2022/06/23 09:15:06;;;;;;;1.25;0.50;;;27.00;48.30;;;26.23;31.02;99925.91;9833591;29;96881;-88
2022/06/23 09:20:52;;;;;;;0.52;0.38;;;27.20;47.20;;;26.29;30.13;99920.16;9858539;29;97341;-88
2022/06/23 09:26:41;;;;;;;0.43;0.30;;;27.20;45.40;;;26.41;30.55;99920.69;9865393;29;96484;-88
2022/06/23 09:32:17;;;;;;;0.68;0.38;;;27.30;45.30;;;26.33;30.29;99913.09;9809491;29;96685;-87
2022/06/23 09:37:59;;;;;;;0.70;0.40;;;27.20;45.80;;;26.51;29.83;99913.56;9826335;29;96524;-87
2022/06/23 09:43:14;;;;;;;1.30;0.50;;;27.30;46.00;;;26.72;30.98;99912.34;9814309;29;96668;-88
2022/06/23 09:49:02;;;;;;;0.85;0.40;;;27.50;46.60;;;26.76;29.94;99920.81;9837523;29;96777;-88
2022/06/23 09:54:17;;;;;;;2.10;0.73;;;27.60;45.20;;;26.81;29.55;99915.28;9843728;29;96932;-88
2022/06/23 09:59:48;;;;;;;0.38;0.25;;;27.60;43.90;;;27.00;30.70;99918.19;9861927;29;96851;-88
2022/06/23 10:05:02;;;;;;;0.88;0.40;;;27.70;46.10;;;27.26;28.97;99903.28;9850104;29;96601;-89
2022/06/23 10:10:37;;;;;;;0.22;0.20;;;28.10;44.60;;;27.24;28.69;99913.69;9848521;29;96604;-89
2022/06/23 10:16:32;;;;;;;0.60;0.35;;;28.10;44.70;;;27.21;27.76;99916.97;9861352;29;96499;-88
2022/06/23 10:21:56;;;;;;;0.25;0.17;;;28.20;43.70;;;27.31;27.40;99914.16;9863419;29;96570;-88
2022/06/23 10:27:28;;;;;;;0.30;0.30;;;28.20;42.80;;;27.51;27.55;99910.44;9846743;29;97686;-88
2022/06/23 10:33:11;;;;;;;1.40;0.40;;;28.40;43.40;;;27.73;28.85;99905.34;9846308;29;96486;-87
2022/06/23 10:38:37;;;;;;;0.88;0.40;;;28.60;44.70;;;27.89;27.58;99900.56;9846364;29;97017;-87
2022/06/23 10:44:14;;;;;;;0.40;0.30;;;28.80;43.00;;;27.94;27.52;99897.72;9862844;29;96749;-87
2022/06/23 10:49:24;;;;;;;0.40;0.30;;;28.80;43.30;;;27.99;27.78;99894.94;9834344;29;96999;-87
2022/06/23 10:55:04;;;;;;;0.80;0.30;;;28.80;43.50;;;28.09;27.60;99901.41;9832478;29;96667;-88
2022/06/23 11:00:15;;;;;;;;;;;29.00;43.90;;;28.17;27.02;99895.28;9848365;29;96642;-87
2022/06/23 11:06:01;;;;;;;1.08;0.40;;;29.10;43.30;;;28.18;27.33;99895.00;9838655;29;96490;-87
2022/06/23 11:11:41;;;;;;;0.43;0.20;;;29.10;43.10;;;28.17;26.77;99892.56;9836987;29;97141;-87
2022/06/23 11:17:12;;;;;;;0.43;0.30;;;29.10;42.80;;;28.14;27.74;99904.09;9828744;29;96580;-87
2022/06/23 11:22:36;;;;;;;0.55;0.30;;;29.20;43.30;;;28.07;27.63;99906.34;9798583;29;96757;-87
2022/06/23 11:28:10;;;;;;;0.65;0.30;;;29.10;43.30;;;28.04;27.63;99906.94;9825120;29;96541;-87
2022/06/23 11:33:42;;;;;;;1.00;0.43;;;29.10;43.30;;;27.97;26.85;99901.81;9817645;29;98464;-84
2022/06/23 11:39:09;;;;;;;0.20;0.20;;;29.00;42.70;;;27.75;27.57;99902.31;9806418;29;98123;-86
2022/06/23 11:44:51;;;;;;;0.43;0.30;;;28.80;42.90;;;27.57;27.78;99905.75;9836377;29;96804;-85
2022/06/23 11:50:09;;;;;;;1.65;0.40;;;28.60;43.20;;;27.43;27.48;99905.59;9824529;29;98698;-86
2022/06/23 11:55:45;;;;;;;0.77;0.57;;;28.50;42.80;;;27.46;27.57;99910.47;9840184;29;96604;-86
2022/06/23 12:01:14;;;;;;;0.90;0.35;;;28.50;43.00;;;27.43;27.14;99916.53;9860488;29;96514;-87
2022/06/23 12:07:04;;;;;;;0.40;0.30;;;28.50;42.60;;;27.25;27.98;99909.84;9847481;29;96560;-86
2022/06/23 12:12:07;;;;;;;;;;;28.40;42.90;;;27.24;27.73;99910.94;9847842;29;96501;-87
2022/06/23 12:17:32;;;;;;;0.47;0.25;;;28.30;42.80;;;27.52;28.84;99911.25;9838439;29;96619;-87
2022/06/23 12:22:56;;;;;;;1.40;0.45;;;28.50;44.10;;;28.04;27.81;99909.66;9837032;29;97120;-84
2022/06/23 12:28:17;;;;;;;1.02;0.30;;;28.90;43.50;;;28.46;27.83;99898.78;9829231;29;97627;-86
2022/06/23 12:33:48;;;;;;;0.80;0.45;;;29.30;43.00;;;28.54;26.11;99909.03;9838796;29;96598;-86
2022/06/23 12:39:00;;;;;;;0.82;0.50;;;29.40;41.90;;;28.69;25.32;99897.09;9830394;29;96763;-86
2022/06/23 12:44:47;;;;;;;0.43;0.20;;;29.60;41.60;;;29.18;26.86;99893.09;9812733;29;96763;-83
2022/06/23 12:50:08;;;;;;;0.93;0.38;;;30.00;41.90;;;29.49;26.14;99887.91;9836904;29;96751;-84
2022/06/23 12:55:43;;;;;;;0.80;0.40;;;30.30;42.30;;;29.79;26.00;99883.84;9840030;29;98915;-90
2022/06/23 13:01:17;;;;;;;0.45;0.40;;;30.60;42.40;;;29.94;24.75;99871.78;9833240;29;97509;-91
2022/06/23 13:06:59;;;;;;;0.40;0.22;;;30.80;40.00;;;29.95;24.17;99875.31;9829601;29;96682;-91
2022/06/23 13:12:10;;;;;;;0.73;0.45;;;30.80;41.10;;;29.69;24.40;99878.56;9827074;29;96641;-89
2022/06/23 13:17:28;;;;;;;0.90;0.40;;;30.70;40.30;;;29.72;25.05;99867.00;9835313;29;96852;-88
2022/06/23 13:22:56;;;;;;;0.50;0.30;;;30.70;40.70;;;29.68;23.94;99867.91;9841741;29;96730;-88
2022/06/23 13:28:03;;;;;;;1.02;0.45;;;30.80;39.20;;;29.58;23.87;99861.50;9827319;29;97239;-91
2022/06/23 13:33:20;;;;;;;0.85;0.25;;;30.60;39.60;;;29.54;23.62;99874.16;9814211;29;96728;-90
2022/06/23 13:38:47;;;;;;;2.50;0.40;;;30.60;39.50;;;29.82;23.33;99853.09;9843434;29;99237;-89
2022/06/23 13:44:27;;;;;;;2.22;0.40;;;30.80;39.50;;;30.16;24.32;99859.31;9819206;29;97458;-87
2022/06/23 13:49:57;;;;;;;0.38;0.28;;;31.10;40.30;;;30.17;22.84;99850.81;9827421;29;97043;-90
2022/06/23 13:55:13;;;;;;;0.68;0.40;;;31.20;38.90;;;30.01;23.04;99853.00;9847753;29;96560;-90
2022/06/23 14:00:26;;;;;;;0.77;0.30;;;31.10;38.70;;;30.22;22.85;99847.91;9825669;29;97510;-89
2022/06/23 14:05:39;;;;;;;0.55;0.30;;;31.20;38.70;;;30.28;22.17;99848.63;9838925;29;98081;-89
2022/06/23 14:11:04;;;;;;;0.40;0.28;;;31.30;38.10;;;30.24;22.16;99842.97;9829307;29;96687;-89
2022/06/23 14:16:18;;;;;;;0.90;0.40;;;31.40;38.10;;;30.47;22.16;99845.75;9833439;29;96677;-88
2022/06/23 14:21:41;;;;;;;1.20;0.38;;;31.50;37.90;;;30.36;21.26;99850.66;9839662;29;96671;-91
2022/06/23 14:27:16;;;;;;;0.40;0.30;;;31.50;37.00;;;30.50;21.04;99840.47;9854857;29;98150;-91
2022/06/23 14:32:47;;;;;;;0.40;0.20;;;31.50;37.00;;;30.49;21.15;99844.31;9846565;29;98082;-92
2022/06/23 14:38:18;;;;;;;0.52;0.40;;;31.50;36.70;;;30.70;22.02;99841.13;9824757;29;97328;-85
2022/06/23 14:44:17;;;;;;;0.85;0.40;;;31.70;37.10;;;30.81;21.13;99837.03;9854903;29;99565;-85
2022/06/23 14:49:58;;;;;;;0.20;0.20;;;31.80;36.70;;;30.91;21.29;99828.56;9827360;29;97345;-84
2022/06/23 14:55:36;;;;;;;0.45;0.30;;;31.80;36.90;;;31.08;20.64;99823.19;9831153;29;96745;-86
2022/06/23 15:01:06;;;;;;;0.70;0.40;;;31.80;35.00;;;31.19;20.39;99821.00;9840623;29;97272;-87
2022/06/23 15:06:46;;;;;;;0.22;0.22;;;31.90;35.80;;;31.25;20.73;99813.44;9848831;29;97318;-88
2022/06/23 15:12:34;;;;;;;1.10;0.40;;;31.90;36.70;;;31.38;20.45;99809.84;9821675;29;96733;-85
2022/06/23 15:18:02;;;;;;;0.40;0.20;;;32.00;37.20;;;31.49;20.44;99810.34;9842905;29;97018;-88
2022/06/23 15:23:46;;;;;;;0.75;0.40;;;32.20;36.60;;;31.60;20.36;99796.00;9859684;29;96530;-89
2022/06/23 15:29:04;;;;;;;0.40;0.30;;;32.40;36.80;;;31.60;20.32;99795.19;9830937;29;98378;-89
2022/06/23 15:34:21;;;;;;;0.30;0.30;;;32.50;36.70;;;31.64;20.85;99802.50;9843064;29;97563;-92
2022/06/23 15:39:46;;;;;;;0.80;0.38;;;32.50;36.70;;;31.48;20.07;99792.25;9843534;29;98370;-92
2022/06/23 15:45:16;;;;;;;0.30;0.25;;;32.30;35.20;;;31.16;19.72;99794.97;9844625;29;97590;-95
2022/06/23 15:50:44;;;;;;;0.50;0.20;;;31.90;34.50;;;31.11;21.05;99789.63;9845567;29;98529;-95
2022/06/23 15:56:07;;;;;;;0.37;0.30;;;31.70;36.60;;;31.15;19.55;99784.31;9848054;29;96603;-95
2022/06/23 16:01:31;;;;;;;0.32;0.30;;;31.80;35.90;;;31.12;21.14;99787.69;9858551;29;96667;-95
2022/06/23 16:06:38;;;;;;;0.95;0.40;;;31.90;36.50;;;31.18;20.95;99778.19;9815401;29;96430;-95
2022/06/23 16:11:59;;;;;;;0.90;0.30;;;32.00;36.50;;;31.27;20.65;99778.28;9858673;29;96357;-90
2022/06/23 16:17:07;;;;;;;1.17;0.20;;;32.00;36.80;;;31.14;20.69;99783.53;9844692;29;96560;-90
2022/06/23 16:22:12;;;;;;;;;;;32.00;36.40;;;31.14;20.73;99778.03;9830523;29;96620;-91
2022/06/23 16:27:29;;;;;;;0.30;0.20;;;31.90;36.60;;;31.24;21.38;99781.63;9841539;29;96455;-91
2022/06/23 16:33:00;;;;;;;1.85;0.32;;;32.00;37.20;;;31.13;20.95;99789.34;9811044;29;99272;-92
2022/06/23 16:38:13;;;;;;;0.57;0.30;;;31.90;35.80;;;30.92;21.14;99789.03;9823432;29;96763;-92
2022/06/23 16:43:24;;;;;;;0.63;0.22;;;31.60;36.10;;;30.78;21.09;99785.56;9820913;29;96946;-90
2022/06/23 16:48:58;;;;;;;0.90;0.20;;;31.50;36.80;;;30.56;20.67;99789.88;9828511;29;96722;-90
2022/06/23 16:54:14;;;;;;;0.60;0.35;;;31.40;36.50;;;30.49;21.80;99783.22;9802059;29;97396;-91
2022/06/23 17:00:05;;;;;;;0.40;0.30;;;31.30;36.90;;;30.44;22.51;99784.13;9835276;29;96660;-92
2022/06/23 17:05:26;;;;;;;0.30;0.20;;;31.30;37.30;;;30.36;22.01;99787.63;9843172;29;96839;-91
2022/06/23 17:10:47;;;;;;;1.50;0.30;;;31.10;37.20;;;30.18;21.39;99783.09;9818174;29;96723;-90
2022/06/23 17:16:03;;;;;;;1.48;0.30;;;31.00;36.40;;;30.05;21.72;99788.28;9862314;29;97017;-94
2022/06/23 17:21:22;;;;;;;0.60;0.38;;;30.80;36.80;;;29.91;21.88;99797.59;9845741;29;97319;-93
2022/06/23 17:26:59;;;;;;;0.73;0.30;;;30.70;37.10;;;29.70;22.03;99792.56;9849358;29;98333;-87
2022/06/23 17:32:39;;;;;;;0.77;0.40;;;30.60;37.20;;;29.35;22.88;99791.28;9849618;29;96564;-88
2022/06/23 17:37:50;;;;;;;;;;;30.30;37.70;;;29.02;23.52;99785.84;9845829;29;97309;-87
2022/06/23 17:48:43;;;;;;;0.50;0.30;;;29.70;38.80;;;28.34;26.00;99797.28;9843617;29;96776;-87
2022/06/23 17:54:03;;;;;;;0.65;0.30;;;29.40;40.00;;;28.05;26.70;99794.66;9831111;29;96731;-85
2022/06/23 17:59:48;;;;;;;0.55;0.28;;;29.10;40.60;;;27.70;27.10;99795.91;9829818;29;98470;-88
2022/06/23 18:04:59;;;;;;;0.57;0.38;;;28.80;40.60;;;27.34;27.78;99804.44;9846835;29;98570;-88
2022/06/23 18:10:05;;;;;;;2.10;0.30;;;28.40;40.80;;;26.97;27.75;99802.31;9888268;29;96752;-88
2022/06/23 18:15:32;;;;;;;1.00;0.60;;;28.10;41.00;;;26.60;27.91;99808.34;9846965;29;97542;-88
2022/06/23 18:20:53;;;;;;;1.08;0.50;;;27.80;41.20;;;26.21;29.19;99811.81;9835475;29;96571;-87
2022/06/23 18:26:29;;;;;;;0.10;0.10;;;27.40;42.50;;;25.78;29.95;99819.59;9841730;29;96686;-87
2022/06/23 18:32:14;;;;;;;0.80;0.50;;;26.90;43.20;;;25.34;30.95;99812.06;9852715;29;97545;-87
2022/06/23 18:37:26;;;;;;;1.45;0.60;;;26.50;43.90;;;25.07;32.35;99815.09;9755813;29;96739;-87
2022/06/23 18:42:55;;;;;;;0.60;0.40;;;26.10;45.30;;;24.79;33.39;99819.13;9819570;29;96714;-87
2022/06/23 18:48:31;;;;;;;0.70;0.50;;;25.80;45.60;;;24.56;34.29;99830.53;9861734;29;96823;-87
2022/06/23 18:53:47;;;;;;;0.50;0.30;;;25.60;46.30;;;24.28;34.65;99826.34;9840800;29;96652;-86
2022/06/23 18:59:40;;;;;;;0.57;0.30;;;25.30;46.60;;;24.08;34.48;99829.81;9826966;29;97035;-87
2022/06/23 19:05:12;;;;;;;0.60;0.40;;;25.10;46.90;;;23.80;34.59;99835.66;9804282;29;96760;-86
2022/06/23 19:10:32;;;;;;;0.55;0.40;;;24.90;46.50;;;23.66;35.40;99846.16;9822687;29;96895;-86
2022/06/23 19:15:48;;;;;;;0.90;0.38;;;24.70;47.40;;;23.43;36.14;99852.75;9846039;29;98214;-86
2022/06/23 19:21:13;;;;;;;0.75;0.45;;;24.50;48.60;;;23.19;36.46;99857.72;9833729;29;98583;-86
2022/06/23 19:26:28;;;;;;;1.65;0.43;;;24.20;48.80;;;22.94;37.45;99864.56;9824087;29;99150;-86
2022/06/23 19:32:09;;;;;;;0.50;0.30;;;23.90;50.10;;;22.69;37.89;99869.72;9830322;29;97685;-87
2022/06/23 19:37:43;;;;;;;0.57;0.30;;;23.60;51.40;;;22.49;37.74;99881.16;9826606;29;97968;-86
2022/06/23 19:43:42;;;;;;;0.52;0.30;;;23.40;51.10;;;22.30;38.07;99885.25;9831671;29;98692;-86
2022/06/23 19:48:49;;;;;;;3.22;0.38;;;23.20;50.60;;;22.19;38.05;99878.91;9777672;29;97087;-86
2022/06/23 19:54:15;;;;;;;0.80;0.40;;;23.10;50.80;;;22.01;38.56;99865.63;9814624;29;96839;-86
2022/06/23 20:00:00;;;;;;;0.38;0.30;;;23.00;51.20;;;21.83;38.28;99872.16;9852013;29;97592;-86
2022/06/23 20:05:22;;;;;;;1.05;0.50;;;22.80;51.10;;;21.64;37.98;99872.44;9851906;29;96675;-86
2022/06/23 20:10:43;;;;;;;1.27;0.40;;;22.60;50.50;;;21.57;37.96;99870.97;9812217;29;98202;-86
2022/06/23 20:15:59;;;;;;;1.15;0.50;;;22.50;50.60;;;21.48;38.28;99867.09;9794296;29;97446;-86
2022/06/23 20:21:15;;;;;;;0.70;0.40;;;22.40;50.70;;;21.43;38.64;99869.69;9841142;29;96849;-86
2022/06/23 20:26:57;;;;;;;0.60;0.30;;;22.40;51.00;;;21.33;39.52;99875.75;9847134;29;98664;-89
2022/06/23 20:32:13;;;;;;;0.35;0.30;;;22.30;52.20;;;21.04;39.70;99881.19;9841242;29;97463;-83
2022/06/23 20:37:41;;;;;;;2.20;0.40;;;22.10;52.00;;;20.88;39.96;99897.41;9845497;29;96708;-84
2022/06/23 20:43:03;;;;;;;0.50;0.30;;;21.80;52.00;;;20.78;40.37;99896.13;9843216;29;97221;-84
2022/06/23 20:48:55;;;;;;;0.90;0.32;;;21.80;52.30;;;20.70;40.97;99901.13;9811752;29;96672;-84
2022/06/23 20:54:27;;;;;;;1.77;0.60;;;21.70;52.40;;;20.57;41.87;99919.25;9847295;29;96651;-84
2022/06/23 20:59:41;;;;;;;0.60;0.35;;;21.60;53.10;;;20.35;41.44;99922.78;9848898;29;96610;-84
2022/06/23 21:04:56;;;;;;;0.40;0.40;;;21.40;53.20;;;20.20;42.28;99925.97;9814209;29;97260;-84
2022/06/23 21:10:12;;;;;;;1.35;0.43;;;21.20;54.00;;;20.07;42.86;99921.66;9841889;29;96647;-84
2022/06/23 21:15:23;;;;;;;0.68;0.55;;;21.10;55.10;;;19.95;42.67;99926.25;9817061;29;97223;-84
2022/06/23 21:21:10;;;;;;;0.60;0.40;;;21.00;54.00;;;19.80;43.00;99929.44;9867618;29;97108;-84
2022/06/23 21:26:34;;;;;;;0.68;0.30;;;20.90;54.20;;;19.73;43.32;99928.72;9842167;29;96710;-83
2022/06/23 21:32:17;;;;;;;1.25;0.40;;;20.80;55.50;;;19.69;43.47;99932.94;9859358;29;96978;-84
2022/06/23 21:37:29;;;;;;;3.53;0.50;;;20.70;55.10;;;19.56;44.36;99935.84;9820774;29;96720;-84
2022/06/23 21:42:40;;;;;;;1.30;0.63;;;20.60;55.80;;;19.38;44.81;99953.75;9848312;29;96653;-84
2022/06/23 21:47:59;;;;;;;2.15;0.50;;;20.50;55.90;;;19.22;46.09;99954.41;9835838;29;96695;-84
2022/06/23 21:53:29;;;;;;;0.50;0.40;;;20.30;58.30;;;19.06;46.20;99960.44;9848541;29;96651;-83
2022/06/23 21:58:50;;;;;;;1.00;0.55;;;20.10;58.20;;;18.91;47.00;99967.06;9818457;29;96600;-83
2022/06/23 22:04:27;;;;;;;0.73;0.30;;;20.00;58.00;;;18.70;47.55;99959.44;9840276;29;96655;-83
2022/06/23 22:09:45;;;;;;;0.63;0.43;;;19.80;58.70;;;18.61;47.71;99972.38;9843603;29;99141;-84
2022/06/23 22:15:12;;;;;;;0.63;0.50;;;19.70;58.90;;;18.51;48.23;99979.34;9812556;29;96692;-83
2022/06/23 22:20:47;;;;;;;0.75;0.40;;;19.60;58.80;;;18.42;49.03;99979.66;9821627;29;96679;-84
2022/06/23 22:26:41;;;;;;;0.70;0.40;;;19.50;61.40;;;18.30;49.40;99980.63;9843720;29;96659;-84
2022/06/23 22:32:02;;;;;;;1.70;0.60;;;19.40;61.60;;;18.19;50.05;99992.94;9812840;29;97613;-84
2022/06/23 22:37:12;;;;;;;0.45;0.30;;;19.30;60.80;;;18.08;50.43;99999.03;9837631;29;96723;-84
2022/06/23 22:42:22;;;;;;;2.13;0.52;;;19.10;62.10;;;17.97;50.68;100003.25;9844083;29;98012;-83
2022/06/23 22:47:25;;;;;;;;;;;19.00;61.70;;;17.92;50.77;100006.59;9830544;29;96624;-83
2022/06/23 22:52:30;;;;;;;1.95;0.75;;;19.00;62.70;;;17.92;50.68;100005.78;9849265;29;96822;-84
2022/06/23 22:57:37;;;;;;;0.95;0.50;;;18.90;62.90;;;17.94;50.21;100001.03;9844577;29;96794;-84
2022/06/23 23:02:48;;;;;;;1.40;0.50;;;18.90;61.70;;;17.89;51.21;100012.44;9844463;29;97594;-83